sensor_id;sensor_type;location;lat;lon;timestamp;P1;durP1;ratioP1;P2;durP2;ratioP2
6580;SDS011;3324;50.796;7.228;2022-09-01T00:01:56;12.30;;;11.60;;
6580;SDS011;3324;50.796;7.228;2022-09-01T00:04:23;12.80;;;11.90;;
6580;SDS011;3324;50.796;7.228;2022-09-01T00:06:51;12.30;;;11.50;;
6580;SDS011;3324;50.796;7.228;2022-09-01T00:09:19;11.80;;;11.20;;
6580;SDS011;3324;50.796;7.228;2022-09-01T00:11:48;11.70;;;11.10;;
6580;SDS011;3324;50.796;7.228;2022-09-01T00:14:17;12.50;;;11.70;;
6580;SDS011;3324;50.796;7.228;2022-09-01T00:16:45;11.40;;;10.90;;
6580;SDS011;3324;50.796;7.228;2022-09-01T00:19:10;11.80;;;11.20;;
6580;SDS011;3324;50.796;7.228;2022-09-01T00:21:38;11.70;;;11.10;;
6580;SDS011;3324;50.796;7.228;2022-09-01T00:24:06;11.80;;;11.20;;
6580;SDS011;3324;50.796;7.228;2022-09-01T00:26:32;12.00;;;11.40;;
6580;SDS011;3324;50.796;7.228;2022-09-01T00:28:58;12.50;;;11.70;;
6580;SDS011;3324;50.796;7.228;2022-09-01T00:31:24;12.87;;;11.97;;
6580;SDS011;3324;50.796;7.228;2022-09-01T00:33:50;11.90;;;11.30;;
6580;SDS011;3324;50.796;7.228;2022-09-01T00:36:17;12.10;;;11.40;;
6580;SDS011;3324;50.796;7.228;2022-09-01T00:38:44;12.85;;;11.95;;
6580;SDS011;3324;50.796;7.228;2022-09-01T00:41:10;12.43;;;11.73;;
6580;SDS011;3324;50.796;7.228;2022-09-01T00:43:50;12.90;;;12.00;;
6580;SDS011;3324;50.796;7.228;2022-09-01T00:46:21;11.93;;;11.33;;
6580;SDS011;3324;50.796;7.228;2022-09-01T00:48:53;12.93;;;12.13;;
6580;SDS011;3324;50.796;7.228;2022-09-01T00:51:23;13.55;;;12.55;;
6580;SDS011;3324;50.796;7.228;2022-09-01T00:53:50;12.55;;;11.85;;
6580;SDS011;3324;50.796;7.228;2022-09-01T00:56:17;12.25;;;11.55;;
6580;SDS011;3324;50.796;7.228;2022-09-01T00:58:43;13.00;;;12.00;;
6580;SDS011;3324;50.796;7.228;2022-09-01T01:01:09;13.10;;;12.20;;
6580;SDS011;3324;50.796;7.228;2022-09-01T01:03:36;13.10;;;12.20;;
6580;SDS011;3324;50.796;7.228;2022-09-01T01:06:08;13.10;;;12.20;;
6580;SDS011;3324;50.796;7.228;2022-09-01T01:08:39;13.90;;;12.50;;
6580;SDS011;3324;50.796;7.228;2022-09-01T01:11:08;13.07;;;12.17;;
6580;SDS011;3324;50.796;7.228;2022-09-01T01:16:40;13.35;;;12.35;;
6580;SDS011;3324;50.796;7.228;2022-09-01T01:19:56;12.30;;;11.60;;
6580;SDS011;3324;50.796;7.228;2022-09-01T01:22:23;11.80;;;11.20;;
6580;SDS011;3324;50.796;7.228;2022-09-01T01:25:12;12.27;;;11.57;;
6580;SDS011;3324;50.796;7.228;2022-09-01T01:27:38;12.60;;;11.90;;
6580;SDS011;3324;50.796;7.228;2022-09-01T01:30:06;13.50;;;12.50;;
6580;SDS011;3324;50.796;7.228;2022-09-01T01:32:35;12.50;;;11.80;;
6580;SDS011;3324;50.796;7.228;2022-09-01T01:35:01;12.33;;;11.63;;
6580;SDS011;3324;50.796;7.228;2022-09-01T01:37:30;12.50;;;11.80;;
6580;SDS011;3324;50.796;7.228;2022-09-01T01:39:59;12.90;;;12.10;;
6580;SDS011;3324;50.796;7.228;2022-09-01T01:42:25;12.97;;;12.17;;
6580;SDS011;3324;50.796;7.228;2022-09-01T01:44:53;12.50;;;11.80;;
6580;SDS011;3324;50.796;7.228;2022-09-01T01:47:19;12.80;;;12.00;;
6580;SDS011;3324;50.796;7.228;2022-09-01T01:49:45;12.70;;;12.00;;
6580;SDS011;3324;50.796;7.228;2022-09-01T01:52:11;12.90;;;12.10;;
6580;SDS011;3324;50.796;7.228;2022-09-01T01:54:44;13.13;;;12.33;;
6580;SDS011;3324;50.796;7.228;2022-09-01T01:57:10;12.50;;;11.80;;
6580;SDS011;3324;50.796;7.228;2022-09-01T01:59:40;12.70;;;12.00;;
6580;SDS011;3324;50.796;7.228;2022-09-01T02:02:05;12.60;;;11.90;;
6580;SDS011;3324;50.796;7.228;2022-09-01T02:04:32;12.50;;;11.80;;
6580;SDS011;3324;50.796;7.228;2022-09-01T02:06:58;12.55;;;11.65;;
6580;SDS011;3324;50.796;7.228;2022-09-01T02:09:24;13.00;;;12.10;;
6580;SDS011;3324;50.796;7.228;2022-09-01T02:11:50;12.10;;;11.50;;
6580;SDS011;3324;50.796;7.228;2022-09-01T02:14:21;12.10;;;11.40;;
6580;SDS011;3324;50.796;7.228;2022-09-01T02:16:47;12.30;;;11.60;;
6580;SDS011;3324;50.796;7.228;2022-09-01T02:19:14;12.30;;;11.60;;
6580;SDS011;3324;50.796;7.228;2022-09-01T02:21:45;12.40;;;11.70;;
6580;SDS011;3324;50.796;7.228;2022-09-01T02:24:13;12.40;;;11.70;;
6580;SDS011;3324;50.796;7.228;2022-09-01T02:26:40;12.40;;;11.70;;
6580;SDS011;3324;50.796;7.228;2022-09-01T02:29:12;13.17;;;12.27;;
6580;SDS011;3324;50.796;7.228;2022-09-01T02:31:43;12.40;;;11.70;;
6580;SDS011;3324;50.796;7.228;2022-09-01T02:34:10;13.15;;;12.25;;
6580;SDS011;3324;50.796;7.228;2022-09-01T02:36:38;12.20;;;11.50;;
6580;SDS011;3324;50.796;7.228;2022-09-01T02:39:15;13.00;;;12.10;;
6580;SDS011;3324;50.796;7.228;2022-09-01T02:41:47;12.10;;;11.40;;
6580;SDS011;3324;50.796;7.228;2022-09-01T02:44:14;13.00;;;12.10;;
6580;SDS011;3324;50.796;7.228;2022-09-01T02:46:41;13.20;;;12.20;;
6580;SDS011;3324;50.796;7.228;2022-09-01T02:49:16;12.00;;;11.40;;
6580;SDS011;3324;50.796;7.228;2022-09-01T02:51:46;12.77;;;11.88;;
6580;SDS011;3324;50.796;7.228;2022-09-01T02:54:14;12.10;;;11.50;;
6580;SDS011;3324;50.796;7.228;2022-09-01T02:56:44;12.00;;;11.30;;
6580;SDS011;3324;50.796;7.228;2022-09-01T02:59:17;12.80;;;11.90;;
6580;SDS011;3324;50.796;7.228;2022-09-01T03:01:45;12.05;;;11.35;;
6580;SDS011;3324;50.796;7.228;2022-09-01T03:04:13;12.80;;;11.90;;
6580;SDS011;3324;50.796;7.228;2022-09-01T03:06:39;12.90;;;12.00;;
6580;SDS011;3324;50.796;7.228;2022-09-01T03:09:08;11.90;;;11.30;;
6580;SDS011;3324;50.796;7.228;2022-09-01T03:11:36;11.90;;;11.30;;
6580;SDS011;3324;50.796;7.228;2022-09-01T03:14:04;11.90;;;11.30;;
6580;SDS011;3324;50.796;7.228;2022-09-01T03:16:30;11.90;;;11.30;;
6580;SDS011;3324;50.796;7.228;2022-09-01T03:18:56;11.80;;;11.20;;
6580;SDS011;3324;50.796;7.228;2022-09-01T03:21:22;11.90;;;11.30;;
6580;SDS011;3324;50.796;7.228;2022-09-01T03:23:48;11.80;;;11.20;;
6580;SDS011;3324;50.796;7.228;2022-09-01T03:26:16;11.88;;;11.27;;
6580;SDS011;3324;50.796;7.228;2022-09-01T03:28:46;12.40;;;11.60;;
6580;SDS011;3324;50.796;7.228;2022-09-01T03:31:12;12.20;;;11.40;;
6580;SDS011;3324;50.796;7.228;2022-09-01T03:33:39;12.30;;;11.50;;
6580;SDS011;3324;50.796;7.228;2022-09-01T03:36:06;12.30;;;11.50;;
6580;SDS011;3324;50.796;7.228;2022-09-01T03:38:32;11.70;;;11.10;;
6580;SDS011;3324;50.796;7.228;2022-09-01T03:41:02;11.70;;;11.10;;
6580;SDS011;3324;50.796;7.228;2022-09-01T03:43:30;11.70;;;11.10;;
6580;SDS011;3324;50.796;7.228;2022-09-01T03:45:57;12.40;;;11.60;;
6580;SDS011;3324;50.796;7.228;2022-09-01T03:48:25;12.40;;;11.80;;
6580;SDS011;3324;50.796;7.228;2022-09-01T03:50:55;11.50;;;10.90;;
6580;SDS011;3324;50.796;7.228;2022-09-01T03:53:26;11.60;;;11.00;;
6580;SDS011;3324;50.796;7.228;2022-09-01T03:55:53;11.80;;;11.20;;
6580;SDS011;3324;50.796;7.228;2022-09-01T03:58:22;12.00;;;11.40;;
6580;SDS011;3324;50.796;7.228;2022-09-01T04:00:51;11.80;;;11.20;;
6580;SDS011;3324;50.796;7.228;2022-09-01T04:03:20;11.80;;;11.20;;
6580;SDS011;3324;50.796;7.228;2022-09-01T04:05:48;12.65;;;11.80;;
6580;SDS011;3324;50.796;7.228;2022-09-01T04:08:15;11.80;;;11.20;;
6580;SDS011;3324;50.796;7.228;2022-09-01T04:10:49;11.80;;;11.20;;
6580;SDS011;3324;50.796;7.228;2022-09-01T04:13:17;11.80;;;11.20;;
6580;SDS011;3324;50.796;7.228;2022-09-01T04:15:45;11.60;;;11.00;;
6580;SDS011;3324;50.796;7.228;2022-09-01T04:18:11;12.10;;;11.30;;
6580;SDS011;3324;50.796;7.228;2022-09-01T04:20:45;12.20;;;11.40;;
6580;SDS011;3324;50.796;7.228;2022-09-01T04:23:36;11.43;;;10.93;;
6580;SDS011;3324;50.796;7.228;2022-09-01T04:26:06;11.90;;;11.30;;
6580;SDS011;3324;50.796;7.228;2022-09-01T04:28:39;11.90;;;11.30;;
6580;SDS011;3324;50.796;7.228;2022-09-01T04:31:10;11.77;;;11.17;;
6580;SDS011;3324;50.796;7.228;2022-09-01T04:33:41;12.00;;;11.40;;
6580;SDS011;3324;50.796;7.228;2022-09-01T04:36:20;12.43;;;11.63;;
6580;SDS011;3324;50.796;7.228;2022-09-01T04:38:56;11.80;;;11.20;;
6580;SDS011;3324;50.796;7.228;2022-09-01T04:41:25;12.50;;;11.70;;
6580;SDS011;3324;50.796;7.228;2022-09-01T04:43:54;11.90;;;11.30;;
6580;SDS011;3324;50.796;7.228;2022-09-01T04:46:21;11.90;;;11.30;;
6580;SDS011;3324;50.796;7.228;2022-09-01T04:48:50;11.90;;;11.30;;
6580;SDS011;3324;50.796;7.228;2022-09-01T04:51:17;11.90;;;11.30;;
6580;SDS011;3324;50.796;7.228;2022-09-01T04:53:45;12.00;;;11.40;;
6580;SDS011;3324;50.796;7.228;2022-09-01T04:56:13;11.90;;;11.30;;
6580;SDS011;3324;50.796;7.228;2022-09-01T04:58:43;11.70;;;11.10;;
6580;SDS011;3324;50.796;7.228;2022-09-01T05:01:14;12.60;;;11.80;;
6580;SDS011;3324;50.796;7.228;2022-09-01T05:03:41;11.80;;;11.20;;
6580;SDS011;3324;50.796;7.228;2022-09-01T05:06:14;11.90;;;11.30;;
6580;SDS011;3324;50.796;7.228;2022-09-01T05:08:42;12.40;;;11.60;;
6580;SDS011;3324;50.796;7.228;2022-09-01T05:11:09;11.97;;;11.37;;
6580;SDS011;3324;50.796;7.228;2022-09-01T05:13:38;11.80;;;11.20;;
6580;SDS011;3324;50.796;7.228;2022-09-01T05:16:05;13.50;;;12.20;;
6580;SDS011;3324;50.796;7.228;2022-09-01T05:18:36;12.50;;;11.70;;
6580;SDS011;3324;50.796;7.228;2022-09-01T05:21:05;11.73;;;11.13;;
6580;SDS011;3324;50.796;7.228;2022-09-01T05:23:36;12.00;;;11.40;;
6580;SDS011;3324;50.796;7.228;2022-09-01T05:26:04;12.00;;;11.40;;
6580;SDS011;3324;50.796;7.228;2022-09-01T05:28:38;11.70;;;11.10;;
6580;SDS011;3324;50.796;7.228;2022-09-01T05:31:05;11.80;;;11.20;;
6580;SDS011;3324;50.796;7.228;2022-09-01T05:33:31;11.30;;;10.70;;
6580;SDS011;3324;50.796;7.228;2022-09-01T05:36:01;11.40;;;10.90;;
6580;SDS011;3324;50.796;7.228;2022-09-01T05:38:32;11.70;;;11.00;;
6580;SDS011;3324;50.796;7.228;2022-09-01T05:40:59;11.70;;;11.20;;
6580;SDS011;3324;50.796;7.228;2022-09-01T05:43:28;12.10;;;11.30;;
6580;SDS011;3324;50.796;7.228;2022-09-01T05:45:58;13.13;;;11.93;;
6580;SDS011;3324;50.796;7.228;2022-09-01T05:48:28;11.60;;;11.10;;
6580;SDS011;3324;50.796;7.228;2022-09-01T05:50:56;11.70;;;11.20;;
6580;SDS011;3324;50.796;7.228;2022-09-01T05:53:22;12.10;;;11.40;;
6580;SDS011;3324;50.796;7.228;2022-09-01T05:55:50;11.60;;;11.10;;
6580;SDS011;3324;50.796;7.228;2022-09-01T05:58:22;11.75;;;11.20;;
6580;SDS011;3324;50.796;7.228;2022-09-01T06:00:50;11.50;;;11.00;;
6580;SDS011;3324;50.796;7.228;2022-09-01T06:03:18;12.20;;;11.40;;
6580;SDS011;3324;50.796;7.228;2022-09-01T06:05:44;13.20;;;12.20;;
6580;SDS011;3324;50.796;7.228;2022-09-01T06:08:12;11.10;;;10.60;;
6580;SDS011;3324;50.796;7.228;2022-09-01T06:10:39;11.40;;;10.80;;
6580;SDS011;3324;50.796;7.228;2022-09-01T06:13:09;11.80;;;11.20;;
6580;SDS011;3324;50.796;7.228;2022-09-01T06:15:36;12.40;;;11.60;;
6580;SDS011;3324;50.796;7.228;2022-09-01T06:18:04;11.75;;;11.15;;
6580;SDS011;3324;50.796;7.228;2022-09-01T06:20:30;11.80;;;11.20;;
6580;SDS011;3324;50.796;7.228;2022-09-01T06:22:56;11.80;;;11.20;;
6580;SDS011;3324;50.796;7.228;2022-09-01T06:25:22;11.90;;;11.30;;
6580;SDS011;3324;50.796;7.228;2022-09-01T06:27:48;12.55;;;11.70;;
6580;SDS011;3324;50.796;7.228;2022-09-01T06:30:14;11.80;;;11.20;;
6580;SDS011;3324;50.796;7.228;2022-09-01T06:32:44;12.40;;;11.60;;
6580;SDS011;3324;50.796;7.228;2022-09-01T06:35:11;12.20;;;11.40;;
6580;SDS011;3324;50.796;7.228;2022-09-01T06:37:39;12.40;;;11.60;;
6580;SDS011;3324;50.796;7.228;2022-09-01T06:40:08;11.80;;;11.20;;
6580;SDS011;3324;50.796;7.228;2022-09-01T06:42:41;11.80;;;11.20;;
6580;SDS011;3324;50.796;7.228;2022-09-01T06:45:21;11.80;;;11.20;;
6580;SDS011;3324;50.796;7.228;2022-09-01T06:47:48;12.00;;;11.40;;
6580;SDS011;3324;50.796;7.228;2022-09-01T06:50:20;12.15;;;11.35;;
6580;SDS011;3324;50.796;7.228;2022-09-01T06:52:47;11.80;;;11.20;;
6580;SDS011;3324;50.796;7.228;2022-09-01T06:55:28;12.00;;;11.30;;
6580;SDS011;3324;50.796;7.228;2022-09-01T06:57:55;12.00;;;11.40;;
6580;SDS011;3324;50.796;7.228;2022-09-01T07:00:23;12.00;;;11.40;;
6580;SDS011;3324;50.796;7.228;2022-09-01T07:02:53;12.00;;;11.30;;
6580;SDS011;3324;50.796;7.228;2022-09-01T07:05:21;11.90;;;11.30;;
6580;SDS011;3324;50.796;7.228;2022-09-01T07:07:52;12.80;;;11.90;;
6580;SDS011;3324;50.796;7.228;2022-09-01T07:10:23;12.00;;;11.30;;
6580;SDS011;3324;50.796;7.228;2022-09-01T07:12:51;12.25;;;11.55;;
6580;SDS011;3324;50.796;7.228;2022-09-01T07:15:19;12.50;;;11.80;;
6580;SDS011;3324;50.796;7.228;2022-09-01T07:17:49;11.70;;;11.10;;
6580;SDS011;3324;50.796;7.228;2022-09-01T07:20:18;11.80;;;11.20;;
6580;SDS011;3324;50.796;7.228;2022-09-01T07:22:49;13.50;;;12.50;;
6580;SDS011;3324;50.796;7.228;2022-09-01T07:25:16;12.60;;;11.90;;
6580;SDS011;3324;50.796;7.228;2022-09-01T07:27:43;13.00;;;12.20;;
6580;SDS011;3324;50.796;7.228;2022-09-01T07:30:18;12.60;;;11.90;;
6580;SDS011;3324;50.796;7.228;2022-09-01T07:32:45;13.00;;;12.20;;
6580;SDS011;3324;50.796;7.228;2022-09-01T07:35:13;12.50;;;11.80;;
6580;SDS011;3324;50.796;7.228;2022-09-01T07:37:40;13.00;;;12.10;;
6580;SDS011;3324;50.796;7.228;2022-09-01T07:40:07;14.20;;;12.80;;
6580;SDS011;3324;50.796;7.228;2022-09-01T07:42:34;13.00;;;12.20;;
6580;SDS011;3324;50.796;7.228;2022-09-01T07:45:03;12.67;;;11.87;;
6580;SDS011;3324;50.796;7.228;2022-09-01T07:47:35;14.05;;;12.95;;
6580;SDS011;3324;50.796;7.228;2022-09-01T07:50:05;14.00;;;12.90;;
6580;SDS011;3324;50.796;7.228;2022-09-01T07:52:35;13.40;;;12.60;;
6580;SDS011;3324;50.796;7.228;2022-09-01T07:55:15;13.47;;;12.47;;
6580;SDS011;3324;50.796;7.228;2022-09-01T07:57:42;14.20;;;13.10;;
6580;SDS011;3324;50.796;7.228;2022-09-01T08:00:10;13.10;;;12.30;;
6580;SDS011;3324;50.796;7.228;2022-09-01T08:02:40;13.20;;;12.40;;
6580;SDS011;3324;50.796;7.228;2022-09-01T08:05:12;13.30;;;12.30;;
6580;SDS011;3324;50.796;7.228;2022-09-01T08:07:39;14.10;;;13.00;;
6580;SDS011;3324;50.796;7.228;2022-09-01T08:10:06;13.40;;;12.60;;
6580;SDS011;3324;50.796;7.228;2022-09-01T08:12:33;13.20;;;12.40;;
6580;SDS011;3324;50.796;7.228;2022-09-01T08:15:02;13.70;;;12.80;;
6580;SDS011;3324;50.796;7.228;2022-09-01T08:17:31;13.20;;;12.40;;
6580;SDS011;3324;50.796;7.228;2022-09-01T08:19:57;14.20;;;13.30;;
6580;SDS011;3324;50.796;7.228;2022-09-01T08:22:22;14.60;;;13.50;;
6580;SDS011;3324;50.796;7.228;2022-09-01T08:24:50;16.40;;;14.70;;
6580;SDS011;3324;50.796;7.228;2022-09-01T08:27:16;14.50;;;13.50;;
6580;SDS011;3324;50.796;7.228;2022-09-01T08:29:42;14.60;;;13.50;;
6580;SDS011;3324;50.796;7.228;2022-09-01T08:32:08;14.60;;;13.50;;
6580;SDS011;3324;50.796;7.228;2022-09-01T08:34:35;14.20;;;13.10;;
6580;SDS011;3324;50.796;7.228;2022-09-01T08:37:02;14.10;;;13.20;;
6580;SDS011;3324;50.796;7.228;2022-09-01T08:39:29;14.60;;;13.40;;
6580;SDS011;3324;50.796;7.228;2022-09-01T08:42:01;15.50;;;14.30;;
6580;SDS011;3324;50.796;7.228;2022-09-01T08:44:43;15.00;;;13.80;;
6580;SDS011;3324;50.796;7.228;2022-09-01T08:47:41;14.60;;;13.60;;
6580;SDS011;3324;50.796;7.228;2022-09-01T08:50:07;14.30;;;13.40;;
6580;SDS011;3324;50.796;7.228;2022-09-01T08:52:36;14.50;;;13.40;;
6580;SDS011;3324;50.796;7.228;2022-09-01T08:57:52;13.90;;;13.00;;
6580;SDS011;3324;50.796;7.228;2022-09-01T09:00:25;14.70;;;13.70;;
6580;SDS011;3324;50.796;7.228;2022-09-01T09:08:50;15.40;;;14.20;;
6580;SDS011;3324;50.796;7.228;2022-09-01T09:16:51;16.10;;;14.80;;
6580;SDS011;3324;50.796;7.228;2022-09-01T09:19:21;15.48;;;14.38;;
6580;SDS011;3324;50.796;7.228;2022-09-01T09:22:08;15.50;;;14.30;;
6580;SDS011;3324;50.796;7.228;2022-09-01T09:24:39;16.00;;;14.70;;
6580;SDS011;3324;50.796;7.228;2022-09-01T09:30:22;16.70;;;15.30;;
6580;SDS011;3324;50.796;7.228;2022-09-01T09:32:53;15.60;;;14.50;;
6580;SDS011;3324;50.796;7.228;2022-09-01T09:38:21;17.08;;;15.57;;
6580;SDS011;3324;50.796;7.228;2022-09-01T09:40:58;17.10;;;15.80;;
6580;SDS011;3324;50.796;7.228;2022-09-01T09:43:26;17.10;;;15.80;;
6580;SDS011;3324;50.796;7.228;2022-09-01T09:51:36;16.00;;;14.80;;
6580;SDS011;3324;50.796;7.228;2022-09-01T10:02:39;16.70;;;15.40;;
6580;SDS011;3324;50.796;7.228;2022-09-01T10:07:54;16.10;;;14.90;;
6580;SDS011;3324;50.796;7.228;2022-09-01T10:11:03;16.40;;;15.20;;
6580;SDS011;3324;50.796;7.228;2022-09-01T10:13:11;16.60;;;15.30;;
6580;SDS011;3324;50.796;7.228;2022-09-01T10:15:50;15.90;;;14.70;;
6580;SDS011;3324;50.796;7.228;2022-09-01T10:18:21;16.65;;;15.35;;
6580;SDS011;3324;50.796;7.228;2022-09-01T10:20:52;15.40;;;14.30;;
6580;SDS011;3324;50.796;7.228;2022-09-01T10:23:32;15.33;;;14.23;;
6580;SDS011;3324;50.796;7.228;2022-09-01T10:26:15;15.88;;;14.48;;
6580;SDS011;3324;50.796;7.228;2022-09-01T10:28:56;18.50;;;16.90;;
6580;SDS011;3324;50.796;7.228;2022-09-01T10:31:38;16.67;;;15.40;;
6580;SDS011;3324;50.796;7.228;2022-09-01T10:34:05;16.50;;;15.30;;
6580;SDS011;3324;50.796;7.228;2022-09-01T10:36:35;16.80;;;15.40;;
6580;SDS011;3324;50.796;7.228;2022-09-01T10:39:02;17.30;;;15.90;;
6580;SDS011;3324;50.796;7.228;2022-09-01T10:46:45;16.70;;;15.40;;
6580;SDS011;3324;50.796;7.228;2022-09-01T10:49:17;17.50;;;16.10;;
6580;SDS011;3324;50.796;7.228;2022-09-01T10:51:52;17.60;;;16.20;;
6580;SDS011;3324;50.796;7.228;2022-09-01T10:59:42;18.30;;;16.70;;
6580;SDS011;3324;50.796;7.228;2022-09-01T11:02:15;19.20;;;17.30;;
6580;SDS011;3324;50.796;7.228;2022-09-01T11:09:44;18.90;;;17.20;;
6580;SDS011;3324;50.796;7.228;2022-09-01T11:15:38;19.10;;;17.30;;
6580;SDS011;3324;50.796;7.228;2022-09-01T11:18:07;19.55;;;17.45;;
6580;SDS011;3324;50.796;7.228;2022-09-01T11:20:36;16.60;;;15.30;;
6580;SDS011;3324;50.796;7.228;2022-09-01T11:23:05;17.60;;;16.20;;
6580;SDS011;3324;50.796;7.228;2022-09-01T11:25:51;17.77;;;16.27;;
6580;SDS011;3324;50.796;7.228;2022-09-01T11:36:06;19.45;;;17.55;;
6580;SDS011;3324;50.796;7.228;2022-09-01T11:41:33;21.40;;;18.10;;
6580;SDS011;3324;50.796;7.228;2022-09-01T11:44:14;19.00;;;17.30;;
6580;SDS011;3324;50.796;7.228;2022-09-01T11:46:57;21.60;;;18.50;;
6580;SDS011;3324;50.796;7.228;2022-09-01T11:51:55;17.90;;;16.40;;
6580;SDS011;3324;50.796;7.228;2022-09-01T11:54:24;20.80;;;18.10;;
6580;SDS011;3324;50.796;7.228;2022-09-01T11:56:50;20.30;;;17.70;;
6580;SDS011;3324;50.796;7.228;2022-09-01T11:59:29;18.50;;;16.90;;
6580;SDS011;3324;50.796;7.228;2022-09-01T12:01:57;18.50;;;16.90;;
6580;SDS011;3324;50.796;7.228;2022-09-01T12:04:24;18.60;;;17.00;;
6580;SDS011;3324;50.796;7.228;2022-09-01T12:06:58;18.50;;;16.90;;
6580;SDS011;3324;50.796;7.228;2022-09-01T12:09:34;18.70;;;17.10;;
6580;SDS011;3324;50.796;7.228;2022-09-01T12:12:02;19.25;;;17.55;;
6580;SDS011;3324;50.796;7.228;2022-09-01T12:14:28;18.33;;;16.73;;
6580;SDS011;3324;50.796;7.228;2022-09-01T12:16:56;19.70;;;17.90;;
6580;SDS011;3324;50.796;7.228;2022-09-01T12:19:30;19.30;;;17.40;;
6580;SDS011;3324;50.796;7.228;2022-09-01T12:21:59;19.60;;;17.80;;
6580;SDS011;3324;50.796;7.228;2022-09-01T12:24:37;18.90;;;17.20;;
6580;SDS011;3324;50.796;7.228;2022-09-01T12:27:02;19.20;;;17.50;;
6580;SDS011;3324;50.796;7.228;2022-09-01T12:29:28;19.50;;;17.60;;
6580;SDS011;3324;50.796;7.228;2022-09-01T12:31:56;19.58;;;17.67;;
6580;SDS011;3324;50.796;7.228;2022-09-01T12:34:23;20.10;;;18.10;;
6580;SDS011;3324;50.796;7.228;2022-09-01T12:37:40;18.90;;;17.10;;
6580;SDS011;3324;50.796;7.228;2022-09-01T12:39:52;18.70;;;16.90;;
6580;SDS011;3324;50.796;7.228;2022-09-01T12:44:47;20.10;;;18.10;;
6580;SDS011;3324;50.796;7.228;2022-09-01T12:50:04;21.80;;;18.40;;
6580;SDS011;3324;50.796;7.228;2022-09-01T12:52:43;19.10;;;17.30;;
6580;SDS011;3324;50.796;7.228;2022-09-01T12:55:19;19.00;;;17.30;;
6580;SDS011;3324;50.796;7.228;2022-09-01T12:57:49;19.00;;;17.30;;
6580;SDS011;3324;50.796;7.228;2022-09-01T13:00:18;19.00;;;17.30;;
6580;SDS011;3324;50.796;7.228;2022-09-01T13:08:04;20.50;;;17.80;;
6580;SDS011;3324;50.796;7.228;2022-09-01T13:10:54;21.33;;;18.20;;
6580;SDS011;3324;50.796;7.228;2022-09-01T13:13:22;18.93;;;17.23;;
6580;SDS011;3324;50.796;7.228;2022-09-01T13:15:50;19.30;;;17.50;;
6580;SDS011;3324;50.796;7.228;2022-09-01T13:18:18;19.00;;;17.30;;
6580;SDS011;3324;50.796;7.228;2022-09-01T13:20:45;19.80;;;18.00;;
6580;SDS011;3324;50.796;7.228;2022-09-01T13:23:11;19.70;;;17.80;;
6580;SDS011;3324;50.796;7.228;2022-09-01T13:25:38;22.40;;;18.50;;
6580;SDS011;3324;50.796;7.228;2022-09-01T13:28:04;22.83;;;19.07;;
6580;SDS011;3324;50.796;7.228;2022-09-01T13:30:32;20.70;;;18.70;;
6580;SDS011;3324;50.796;7.228;2022-09-01T13:32:58;19.45;;;17.65;;
6580;SDS011;3324;50.796;7.228;2022-09-01T13:35:24;20.63;;;18.43;;
6580;SDS011;3324;50.796;7.228;2022-09-01T13:37:50;20.00;;;18.10;;
6580;SDS011;3324;50.796;7.228;2022-09-01T13:40:17;20.20;;;18.20;;
6580;SDS011;3324;50.796;7.228;2022-09-01T13:42:45;23.60;;;19.30;;
6580;SDS011;3324;50.796;7.228;2022-09-01T13:45:17;21.00;;;18.90;;
6580;SDS011;3324;50.796;7.228;2022-09-01T13:47:45;24.60;;;19.90;;
6580;SDS011;3324;50.796;7.228;2022-09-01T13:50:13;20.60;;;18.50;;
6580;SDS011;3324;50.796;7.228;2022-09-01T13:52:43;21.50;;;19.30;;
6580;SDS011;3324;50.796;7.228;2022-09-01T13:55:16;20.92;;;18.83;;
6580;SDS011;3324;50.796;7.228;2022-09-01T13:57:43;21.10;;;18.90;;
6580;SDS011;3324;50.796;7.228;2022-09-01T14:00:11;23.30;;;19.97;;
6580;SDS011;3324;50.796;7.228;2022-09-01T14:02:40;26.00;;;20.20;;
6580;SDS011;3324;50.796;7.228;2022-09-01T14:05:21;21.50;;;19.20;;
6580;SDS011;3324;50.796;7.228;2022-09-01T14:07:53;21.83;;;19.43;;
6580;SDS011;3324;50.796;7.228;2022-09-01T14:10:20;21.40;;;19.10;;
6580;SDS011;3324;50.796;7.228;2022-09-01T14:12:48;24.40;;;20.00;;
6580;SDS011;3324;50.796;7.228;2022-09-01T14:15:15;26.50;;;20.25;;
6580;SDS011;3324;50.796;7.228;2022-09-01T14:17:42;21.25;;;19.05;;
6580;SDS011;3324;50.796;7.228;2022-09-01T14:20:10;20.80;;;18.70;;
6580;SDS011;3324;50.796;7.228;2022-09-01T14:22:38;24.05;;;19.30;;
6580;SDS011;3324;50.796;7.228;2022-09-01T14:25:05;23.30;;;19.13;;
6580;SDS011;3324;50.796;7.228;2022-09-01T14:27:32;20.00;;;18.10;;
6580;SDS011;3324;50.796;7.228;2022-09-01T14:29:57;20.30;;;18.20;;
6580;SDS011;3324;50.796;7.228;2022-09-01T14:32:23;20.20;;;18.20;;
6580;SDS011;3324;50.796;7.228;2022-09-01T14:34:54;20.80;;;18.70;;
6580;SDS011;3324;50.796;7.228;2022-09-01T14:37:20;21.20;;;19.00;;
6580;SDS011;3324;50.796;7.228;2022-09-01T14:39:50;20.80;;;18.70;;
6580;SDS011;3324;50.796;7.228;2022-09-01T14:42:17;20.77;;;18.67;;
6580;SDS011;3324;50.796;7.228;2022-09-01T14:44:44;20.70;;;18.60;;
6580;SDS011;3324;50.796;7.228;2022-09-01T14:47:10;20.40;;;18.40;;
6580;SDS011;3324;50.796;7.228;2022-09-01T14:49:36;20.35;;;18.35;;
6580;SDS011;3324;50.796;7.228;2022-09-01T14:52:03;20.40;;;18.40;;
6580;SDS011;3324;50.796;7.228;2022-09-01T14:54:30;20.40;;;18.40;;
6580;SDS011;3324;50.796;7.228;2022-09-01T14:56:57;20.90;;;18.80;;
6580;SDS011;3324;50.796;7.228;2022-09-01T14:59:23;20.80;;;18.70;;
6580;SDS011;3324;50.796;7.228;2022-09-01T15:01:49;24.80;;;20.20;;
6580;SDS011;3324;50.796;7.228;2022-09-01T15:04:15;20.60;;;18.60;;
6580;SDS011;3324;50.796;7.228;2022-09-01T15:06:40;20.70;;;18.60;;
6580;SDS011;3324;50.796;7.228;2022-09-01T15:09:06;22.00;;;19.60;;
6580;SDS011;3324;50.796;7.228;2022-09-01T15:11:31;20.40;;;18.40;;
6580;SDS011;3324;50.796;7.228;2022-09-01T15:13:57;21.50;;;19.30;;
6580;SDS011;3324;50.796;7.228;2022-09-01T15:16:24;21.20;;;19.00;;
6580;SDS011;3324;50.796;7.228;2022-09-01T15:18:52;20.10;;;18.10;;
6580;SDS011;3324;50.796;7.228;2022-09-01T15:21:23;21.10;;;19.00;;
6580;SDS011;3324;50.796;7.228;2022-09-01T15:23:52;20.90;;;18.80;;
6580;SDS011;3324;50.796;7.228;2022-09-01T15:26:19;21.17;;;19.07;;
6580;SDS011;3324;50.796;7.228;2022-09-01T15:28:46;20.55;;;18.55;;
6580;SDS011;3324;50.796;7.228;2022-09-01T15:31:13;21.00;;;18.90;;
6580;SDS011;3324;50.796;7.228;2022-09-01T15:33:40;23.70;;;19.50;;
6580;SDS011;3324;50.796;7.228;2022-09-01T15:36:06;20.10;;;18.10;;
6580;SDS011;3324;50.796;7.228;2022-09-01T15:38:32;21.10;;;18.90;;
6580;SDS011;3324;50.796;7.228;2022-09-01T15:40:59;20.07;;;18.07;;
6580;SDS011;3324;50.796;7.228;2022-09-01T15:43:28;19.60;;;17.70;;
6580;SDS011;3324;50.796;7.228;2022-09-01T15:45:54;22.10;;;18.80;;
6580;SDS011;3324;50.796;7.228;2022-09-01T15:48:22;19.70;;;17.90;;
6580;SDS011;3324;50.796;7.228;2022-09-01T15:50:48;20.00;;;18.10;;
6580;SDS011;3324;50.796;7.228;2022-09-01T15:53:13;20.20;;;18.10;;
6580;SDS011;3324;50.796;7.228;2022-09-01T15:55:40;19.30;;;17.60;;
6580;SDS011;3324;50.796;7.228;2022-09-01T15:58:09;18.70;;;17.10;;
6580;SDS011;3324;50.796;7.228;2022-09-01T16:00:37;18.20;;;16.60;;
6580;SDS011;3324;50.796;7.228;2022-09-01T16:03:03;18.80;;;17.20;;
6580;SDS011;3324;50.796;7.228;2022-09-01T16:05:30;18.80;;;17.10;;
6580;SDS011;3324;50.796;7.228;2022-09-01T16:07:58;20.30;;;18.30;;
6580;SDS011;3324;50.796;7.228;2022-09-01T16:10:28;20.08;;;18.08;;
6580;SDS011;3324;50.796;7.228;2022-09-01T16:12:54;19.87;;;17.97;;
6580;SDS011;3324;50.796;7.228;2022-09-01T16:15:21;20.13;;;18.03;;
6580;SDS011;3324;50.796;7.228;2022-09-01T16:20:37;20.75;;;18.55;;
6580;SDS011;3324;50.796;7.228;2022-09-01T16:23:19;20.20;;;18.20;;
6580;SDS011;3324;50.796;7.228;2022-09-01T16:25:47;20.70;;;18.55;;
6580;SDS011;3324;50.796;7.228;2022-09-01T16:30:45;19.70;;;17.80;;